createdAt,value
2019-05-06T00:00:08.984Z,6.40
2019-05-06T00:01:09.007Z,6.51
2019-05-06T00:02:09.038Z,6.44
2019-05-06T00:03:09.054Z,6.37
2019-05-06T00:04:09.079Z,6.44
2019-05-06T00:05:09.103Z,6.37
2019-05-06T00:06:09.127Z,6.36
2019-05-06T00:07:09.149Z,6.44
2019-05-06T00:08:09.173Z,6.28
2019-05-06T00:09:09.200Z,6.29
2019-05-06T00:10:09.221Z,6.33
2019-05-06T00:11:09.242Z,6.33
2019-05-06T00:12:09.272Z,6.33
2019-05-06T00:13:09.291Z,6.31
2019-05-06T00:14:09.313Z,6.25
2019-05-06T00:15:09.338Z,6.18
2019-05-06T00:16:09.364Z,6.17
2019-05-06T00:17:09.383Z,6.13
2019-05-06T00:18:09.410Z,6.21
2019-05-06T00:19:09.439Z,6.18
2019-05-06T00:20:09.453Z,6.25
2019-05-06T00:21:09.483Z,6.17
2019-05-06T00:22:09.501Z,6.17
2019-05-06T00:23:09.525Z,6.21
2019-05-06T00:24:09.548Z,6.10
2019-05-06T00:25:09.573Z,6.07
2019-05-06T00:26:09.597Z,5.98
2019-05-06T00:27:09.620Z,5.98
2019-05-06T00:28:09.644Z,5.89
2019-05-06T00:29:09.667Z,6.00
2019-05-06T00:30:09.696Z,5.88
2019-05-06T00:31:13.409Z,5.81
2019-05-06T00:32:09.742Z,5.85
2019-05-06T00:33:09.767Z,5.87
2019-05-06T00:34:09.781Z,5.81
2019-05-06T00:35:09.807Z,5.80
2019-05-06T00:36:09.829Z,5.73
2019-05-06T00:37:09.869Z,5.64
2019-05-06T00:38:09.884Z,5.64
2019-05-06T00:39:09.901Z,5.63
2019-05-06T00:40:09.927Z,5.57
2019-05-06T00:41:09.945Z,5.59
2019-05-06T00:42:09.968Z,5.51
2019-05-06T00:43:09.994Z,5.59
2019-05-06T00:44:10.017Z,5.62
2019-05-06T00:45:10.037Z,5.66
2019-05-06T00:46:10.069Z,5.66
2019-05-06T00:47:10.086Z,5.63
2019-05-06T00:48:10.107Z,5.66
2019-05-06T00:49:10.132Z,5.62
2019-05-06T00:50:10.153Z,5.66
2019-05-06T00:51:10.182Z,5.59
2019-05-06T00:52:10.199Z,5.49
2019-05-06T00:53:10.223Z,5.51
2019-05-06T00:54:10.255Z,5.60
2019-05-06T00:55:10.270Z,5.45
2019-05-06T00:56:10.301Z,5.48
2019-05-06T00:57:10.317Z,5.55
2019-05-06T00:58:10.341Z,5.48
2019-05-06T00:59:10.361Z,5.49
2019-05-06T01:00:10.392Z,5.51
2019-05-06T01:01:23.177Z,5.46
2019-05-06T01:02:10.432Z,5.48
2019-05-06T01:03:10.457Z,5.48
2019-05-06T01:04:10.478Z,5.48
2019-05-06T01:05:10.503Z,5.46
2019-05-06T01:06:10.524Z,5.44
2019-05-06T01:07:10.545Z,5.44
2019-05-06T01:08:10.572Z,5.37
2019-05-06T01:09:10.592Z,5.39
2019-05-06T01:10:10.622Z,5.46
2019-05-06T01:11:10.643Z,5.39
2019-05-06T01:12:10.662Z,5.42
2019-05-06T01:13:10.690Z,5.39
2019-05-06T01:14:10.710Z,5.37
2019-05-06T01:15:10.732Z,5.36
2019-05-06T01:16:10.754Z,5.34
2019-05-06T01:17:10.778Z,5.31
2019-05-06T01:18:10.801Z,5.31
2019-05-06T01:19:10.824Z,5.24
2019-05-06T01:20:10.847Z,5.30
2019-05-06T01:21:10.874Z,5.24
2019-05-06T01:22:10.891Z,5.31
2019-05-06T01:23:10.920Z,5.26
2019-05-06T01:24:10.940Z,5.28
2019-05-06T01:25:10.961Z,5.26
2019-05-06T01:26:10.983Z,5.34
2019-05-06T01:27:11.011Z,5.26
2019-05-06T01:28:11.031Z,5.30
2019-05-06T01:29:11.058Z,5.36
2019-05-06T01:30:11.074Z,5.33
2019-05-06T01:31:11.098Z,5.27
2019-05-06T01:32:11.123Z,5.21
2019-05-06T01:33:11.145Z,5.23
2019-05-06T01:34:11.166Z,5.23
2019-05-06T01:35:11.189Z,5.16
2019-05-06T01:36:11.214Z,5.15
2019-05-06T01:37:11.234Z,5.15
2019-05-06T01:38:11.260Z,5.08
2019-05-06T01:39:11.283Z,5.15
2019-05-06T01:40:11.304Z,5.09
2019-05-06T01:41:13.489Z,5.12
2019-05-06T01:42:11.354Z,5.08
2019-05-06T01:43:11.375Z,5.10
2019-05-06T01:44:13.608Z,5.15
2019-05-06T01:45:11.417Z,5.10
2019-05-06T01:46:11.439Z,5.05
2019-05-06T01:47:11.471Z,5.09
2019-05-06T01:48:11.492Z,5.13
2019-05-06T01:49:13.624Z,5.08
2019-05-06T01:50:11.533Z,5.09
2019-05-06T01:51:11.556Z,5.10
2019-05-06T01:52:11.582Z,5.08
2019-05-06T01:53:11.599Z,5.12
2019-05-06T01:54:11.623Z,5.10
2019-05-06T01:55:11.648Z,5.23
2019-05-06T01:56:11.671Z,5.21
2019-05-06T01:57:13.673Z,5.08
2019-05-06T01:58:11.715Z,5.12
2019-05-06T01:59:13.794Z,5.08
2019-05-06T02:00:13.936Z,5.06
2019-05-06T02:01:11.784Z,5.09
2019-05-06T02:02:11.807Z,5.10
2019-05-06T02:03:11.831Z,5.15
2019-05-06T02:04:13.761Z,5.13
2019-05-06T02:05:13.757Z,5.15
2019-05-06T02:06:13.887Z,5.08
2019-05-06T02:07:11.918Z,5.09
2019-05-06T02:08:13.493Z,5.00
2019-05-06T02:09:13.732Z,5.05
2019-05-06T02:10:14.028Z,5.13
2019-05-06T02:11:12.012Z,5.12
2019-05-06T02:12:13.782Z,4.97
2019-05-06T02:13:14.118Z,4.92
2019-05-06T02:14:13.932Z,4.88
2019-05-06T02:15:12.105Z,4.88
2019-05-06T02:16:14.354Z,4.90
2019-05-06T02:17:14.236Z,4.88
2019-05-06T02:18:13.545Z,4.91
2019-05-06T02:19:12.198Z,4.85
2019-05-06T02:20:13.823Z,4.84
2019-05-06T02:21:13.845Z,4.85
2019-05-06T02:22:13.620Z,4.85
2019-05-06T02:23:14.464Z,4.88
2019-05-06T02:24:13.496Z,4.90
2019-05-06T02:25:13.842Z,4.94
2019-05-06T02:26:14.151Z,4.87
2019-05-06T02:27:13.963Z,4.79
2019-05-06T02:28:14.299Z,4.88
2019-05-06T02:29:12.425Z,4.84
2019-05-06T02:30:15.085Z,4.85
2019-05-06T02:31:14.848Z,4.88
2019-05-06T02:32:25.223Z,4.83
2019-05-06T02:33:15.168Z,4.90
2019-05-06T02:34:15.284Z,4.88
2019-05-06T02:35:14.945Z,4.97
2019-05-06T02:36:14.908Z,4.97
2019-05-06T02:37:14.718Z,4.94
2019-05-06T02:38:12.626Z,4.88
2019-05-06T02:39:14.100Z,4.98
2019-05-06T02:40:12.780Z,4.97
2019-05-06T02:41:13.423Z,4.95
2019-05-06T02:42:13.223Z,4.88
2019-05-06T02:43:13.564Z,4.87
2019-05-06T02:44:13.749Z,4.84
2019-05-06T02:45:12.861Z,4.88
2019-05-06T02:46:13.049Z,4.95
2019-05-06T02:47:13.705Z,4.87
2019-05-06T02:48:13.792Z,4.83
2019-05-06T02:49:13.302Z,4.79
2019-05-06T02:50:13.385Z,4.72
2019-05-06T02:51:13.493Z,4.75
2019-05-06T02:52:14.030Z,4.68
2019-05-06T02:53:13.438Z,4.68
2019-05-06T02:54:13.621Z,4.68
2019-05-06T02:55:13.129Z,4.68
2019-05-06T02:56:13.495Z,4.69
2019-05-06T02:57:13.362Z,4.69
2019-05-06T02:58:14.853Z,4.69
2019-05-06T02:59:13.108Z,4.69
2019-05-06T03:00:13.271Z,4.68
2019-05-06T03:01:13.680Z,4.65
2019-05-06T03:02:14.226Z,4.66
2019-05-06T03:03:14.011Z,4.74
2019-05-06T03:04:13.358Z,4.66
2019-05-06T03:05:13.252Z,4.74
2019-05-06T03:06:13.404Z,4.74
2019-05-06T03:07:14.499Z,4.74
2019-05-06T03:08:13.748Z,4.74
2019-05-06T03:09:13.760Z,4.75
2019-05-06T03:10:13.360Z,4.78
2019-05-06T03:11:13.877Z,4.78
2019-05-06T03:12:13.870Z,4.69
2019-05-06T03:13:14.396Z,4.68
2019-05-06T03:14:14.055Z,4.74
2019-05-06T03:15:16.592Z,4.74
2019-05-06T03:16:14.325Z,4.74
2019-05-06T03:17:14.278Z,4.78
2019-05-06T03:18:14.718Z,4.76
2019-05-06T03:19:13.696Z,4.68
2019-05-06T03:20:13.585Z,4.78
2019-05-06T03:21:14.028Z,4.85
2019-05-06T03:22:13.634Z,4.83
2019-05-06T03:23:14.353Z,4.87
2019-05-06T03:24:14.640Z,4.90
2019-05-06T03:25:13.696Z,4.87
2019-05-06T03:26:13.899Z,4.88
2019-05-06T03:27:14.441Z,4.92
2019-05-06T03:28:13.765Z,5.05
2019-05-06T03:29:13.793Z,5.03
2019-05-06T03:30:16.303Z,5.02
2019-05-06T03:31:16.458Z,5.06
2019-05-06T03:32:16.821Z,4.92
2019-05-06T03:33:37.050Z,5.02
2019-05-06T03:34:35.765Z,4.98
2019-05-06T03:35:27.377Z,4.92
2019-05-06T03:36:23.923Z,4.98
2019-05-06T03:37:16.724Z,4.87
2019-05-06T03:38:13.995Z,4.94
2019-05-06T03:39:14.032Z,4.90
2019-05-06T03:40:14.058Z,4.92
2019-05-06T03:41:14.186Z,4.84
2019-05-06T03:42:16.745Z,4.90
2019-05-06T03:43:16.072Z,4.88
2019-05-06T03:44:16.748Z,4.95
2019-05-06T03:45:14.147Z,4.97
2019-05-06T03:46:14.465Z,4.92
2019-05-06T03:47:14.194Z,4.87
2019-05-06T03:48:14.217Z,4.85
2019-05-06T03:49:14.249Z,4.84
2019-05-06T03:50:14.264Z,4.76
2019-05-06T03:51:14.297Z,4.85
2019-05-06T03:52:14.321Z,4.74
2019-05-06T03:53:14.348Z,4.76
2019-05-06T03:54:14.355Z,4.78
2019-05-06T03:55:14.378Z,4.68
2019-05-06T03:56:19.515Z,4.72
2019-05-06T03:57:14.421Z,4.69
2019-05-06T03:58:14.444Z,4.74
2019-05-06T03:59:14.469Z,4.68
2019-05-06T04:00:16.024Z,4.66
2019-05-06T04:01:14.514Z,4.65
2019-05-06T04:02:14.533Z,4.57
2019-05-06T04:03:14.558Z,4.57
2019-05-06T04:04:14.585Z,4.54
2019-05-06T04:05:14.601Z,4.61
2019-05-06T04:06:14.626Z,4.56
2019-05-06T04:07:14.649Z,4.58
2019-05-06T04:08:14.670Z,4.57
2019-05-06T04:09:14.691Z,4.50
2019-05-06T04:10:14.721Z,4.50
2019-05-06T04:11:14.737Z,4.54
2019-05-06T04:12:14.786Z,4.40
2019-05-06T04:13:14.784Z,4.48
2019-05-06T04:14:14.806Z,4.46
2019-05-06T04:15:14.830Z,4.51
2019-05-06T04:16:14.854Z,4.36
2019-05-06T04:17:14.881Z,4.50
2019-05-06T04:18:14.894Z,4.50
2019-05-06T04:19:14.918Z,4.54
2019-05-06T04:20:14.951Z,4.42
2019-05-06T04:21:16.720Z,4.51
2019-05-06T04:22:14.987Z,4.53
2019-05-06T04:23:15.010Z,4.51
2019-05-06T04:24:15.035Z,4.50
2019-05-06T04:25:15.066Z,4.51
2019-05-06T04:26:15.082Z,4.42
2019-05-06T04:27:15.100Z,4.56
2019-05-06T04:28:15.121Z,4.50
2019-05-06T04:29:15.142Z,4.51
2019-05-06T04:30:15.165Z,4.56
2019-05-06T04:31:15.196Z,4.51
2019-05-06T04:32:15.210Z,4.48
2019-05-06T04:33:17.502Z,4.61
2019-05-06T04:34:19.120Z,4.44
2019-05-06T04:35:15.278Z,4.51
2019-05-06T04:36:15.306Z,4.53
2019-05-06T04:37:15.322Z,4.56
2019-05-06T04:38:15.352Z,4.53
2019-05-06T04:39:15.368Z,4.51
2019-05-06T04:40:15.397Z,4.48
2019-05-06T04:41:15.418Z,4.40
2019-05-06T04:42:15.438Z,4.48
2019-05-06T04:43:15.461Z,4.46
2019-05-06T04:44:15.493Z,4.51
2019-05-06T04:45:17.248Z,4.53
2019-05-06T04:46:16.983Z,4.53
2019-05-06T04:47:15.549Z,4.50
2019-05-06T04:48:15.571Z,4.57
2019-05-06T04:49:15.596Z,4.61
2019-05-06T04:50:15.619Z,4.57
2019-05-06T04:51:15.640Z,4.66
2019-05-06T04:52:15.664Z,4.69
2019-05-06T04:53:15.687Z,4.76
2019-05-06T04:54:15.710Z,4.71
2019-05-06T04:55:15.731Z,4.90
2019-05-06T04:56:15.766Z,4.87
2019-05-06T04:57:15.774Z,4.85
2019-05-06T04:58:15.803Z,4.90
2019-05-06T04:59:15.829Z,4.94
2019-05-06T05:00:15.846Z,4.85
2019-05-06T05:01:16.015Z,4.85
2019-05-06T05:02:15.890Z,4.95
2019-05-06T05:03:15.914Z,4.92
2019-05-06T05:04:28.212Z,4.98
2019-05-06T05:05:15.962Z,4.97
2019-05-06T05:06:15.988Z,4.98
2019-05-06T05:07:16.004Z,4.95
2019-05-06T05:08:16.025Z,4.97
2019-05-06T05:09:17.453Z,5.00
2019-05-06T05:10:16.070Z,4.95
2019-05-06T05:11:16.091Z,4.92
2019-05-06T05:12:16.122Z,4.95
2019-05-06T05:13:16.139Z,4.94
2019-05-06T05:14:16.163Z,5.06
2019-05-06T05:15:16.185Z,5.06
2019-05-06T05:16:16.209Z,5.09
2019-05-06T05:17:16.229Z,5.12
2019-05-06T05:18:16.251Z,5.23
2019-05-06T05:19:16.273Z,5.18
2019-05-06T05:20:16.299Z,5.23
2019-05-06T05:21:16.323Z,5.30
2019-05-06T05:22:16.344Z,5.28
2019-05-06T05:23:16.367Z,5.27
2019-05-06T05:24:16.390Z,5.31
2019-05-06T05:25:16.416Z,5.39
2019-05-06T05:26:16.434Z,5.46
2019-05-06T05:27:16.457Z,5.39
2019-05-06T05:28:16.480Z,5.46
2019-05-06T05:29:16.504Z,5.48
2019-05-06T05:30:16.527Z,5.48
2019-05-06T05:31:16.550Z,5.52
2019-05-06T05:32:16.579Z,5.59
2019-05-06T05:33:16.595Z,5.63
2019-05-06T05:34:16.617Z,5.63
2019-05-06T05:35:16.644Z,5.64
2019-05-06T05:36:16.669Z,5.73
2019-05-06T05:37:16.690Z,5.72
2019-05-06T05:38:16.713Z,5.85
2019-05-06T05:39:16.733Z,5.77
2019-05-06T05:40:16.757Z,5.84
2019-05-06T05:41:16.776Z,5.84
2019-05-06T05:42:16.802Z,5.81
2019-05-06T05:43:16.823Z,5.82
2019-05-06T05:44:16.854Z,5.84
2019-05-06T05:45:16.871Z,5.73
2019-05-06T05:46:16.892Z,5.81
2019-05-06T05:47:16.915Z,5.77
2019-05-06T05:48:16.939Z,5.87
2019-05-06T05:49:20.169Z,5.85
2019-05-06T05:50:16.986Z,5.85
2019-05-06T05:51:17.008Z,5.98
2019-05-06T05:52:17.039Z,5.92
2019-05-06T05:53:17.061Z,6.03
2019-05-06T05:54:17.082Z,6.03
2019-05-06T05:55:17.107Z,6.06
2019-05-06T05:56:17.123Z,6.07
2019-05-06T05:57:17.148Z,6.10
2019-05-06T05:58:17.172Z,6.13
2019-05-06T05:59:17.195Z,6.09
2019-05-06T06:00:17.223Z,6.15
2019-05-06T06:01:17.241Z,6.14
2019-05-06T06:02:17.265Z,6.07
2019-05-06T06:03:17.288Z,6.21
2019-05-06T06:04:17.310Z,6.09
2019-05-06T06:05:17.334Z,6.15
2019-05-06T06:06:17.354Z,6.24
2019-05-06T06:07:17.378Z,6.18
2019-05-06T06:08:17.405Z,6.18
2019-05-06T06:09:17.424Z,6.26
2019-05-06T06:10:17.448Z,6.24
2019-05-06T06:11:17.474Z,6.25
2019-05-06T06:12:17.497Z,6.34
2019-05-06T06:13:17.522Z,6.37
2019-05-06T06:14:17.542Z,6.28
2019-05-06T06:15:17.568Z,6.31
2019-05-06T06:16:17.590Z,6.31
2019-05-06T06:17:17.611Z,6.31
2019-05-06T06:18:17.637Z,6.31
2019-05-06T06:19:17.669Z,6.39
2019-05-06T06:20:17.683Z,6.42
2019-05-06T06:21:24.890Z,6.40
2019-05-06T06:22:17.728Z,6.34
2019-05-06T06:23:17.751Z,6.42
2019-05-06T06:24:17.775Z,6.40
2019-05-06T06:25:17.800Z,6.44
2019-05-06T06:26:17.827Z,6.52
2019-05-06T06:27:17.845Z,6.61
2019-05-06T06:28:17.874Z,6.67
2019-05-06T06:29:18.104Z,6.75
2019-05-06T06:30:17.915Z,6.85
2019-05-06T06:31:17.951Z,6.83
2019-05-06T06:32:17.979Z,6.76
2019-05-06T06:33:17.986Z,6.75
2019-05-06T06:34:18.011Z,6.76
2019-05-06T06:35:19.212Z,6.78
2019-05-06T06:36:18.058Z,6.88
2019-05-06T06:37:18.081Z,6.97
2019-05-06T06:38:18.105Z,6.93
2019-05-06T06:39:18.129Z,6.94
2019-05-06T06:40:18.153Z,7.00
2019-05-06T06:41:18.181Z,6.97
2019-05-06T06:42:18.197Z,6.90
2019-05-06T06:43:18.222Z,7.04
2019-05-06T06:44:18.251Z,7.12
2019-05-06T06:45:18.282Z,7.19
2019-05-06T06:46:18.300Z,7.27
2019-05-06T06:47:18.318Z,7.26
2019-05-06T06:48:18.350Z,7.26
2019-05-06T06:49:18.367Z,7.23
2019-05-06T06:50:18.389Z,7.23
2019-05-06T06:51:18.411Z,7.31
2019-05-06T06:52:18.437Z,7.55
2019-05-06T06:53:18.462Z,7.67
2019-05-06T06:54:18.484Z,7.82
2019-05-06T06:55:18.678Z,7.73
2019-05-06T06:56:18.532Z,7.68
2019-05-06T06:57:18.556Z,7.73
2019-05-06T06:58:18.581Z,7.75
2019-05-06T06:59:18.603Z,7.68
2019-05-06T07:00:18.627Z,7.78
2019-05-06T07:01:18.651Z,7.91
2019-05-06T07:02:18.694Z,8.01
2019-05-06T07:03:18.699Z,8.14
2019-05-06T07:04:18.726Z,8.24
2019-05-06T07:05:25.429Z,8.35
2019-05-06T07:06:18.775Z,8.25
2019-05-06T07:07:18.798Z,8.35
2019-05-06T07:08:32.072Z,8.47
2019-05-06T07:09:18.845Z,8.57
2019-05-06T07:10:18.871Z,8.67
2019-05-06T07:11:18.907Z,8.76
2019-05-06T07:12:18.957Z,9.21
2019-05-06T07:13:18.945Z,9.48
2019-05-06T07:14:18.971Z,9.55
2019-05-06T07:15:18.993Z,9.52
2019-05-06T07:16:20.739Z,9.30
2019-05-06T07:17:19.045Z,9.30
2019-05-06T07:18:19.083Z,9.57
2019-05-06T07:19:19.094Z,9.67
2019-05-06T07:20:19.122Z,9.88
2019-05-06T07:21:19.147Z,10.17
2019-05-06T07:22:19.172Z,10.05
2019-05-06T07:23:19.196Z,10.21
2019-05-06T07:24:19.224Z,10.08
2019-05-06T07:25:19.249Z,10.10
2019-05-06T07:26:19.275Z,10.17
2019-05-06T07:27:19.307Z,10.32
2019-05-06T07:28:19.325Z,10.23
2019-05-06T07:29:25.835Z,10.29
2019-05-06T07:30:19.377Z,10.10
2019-05-06T07:31:23.709Z,10.11
2019-05-06T07:32:19.431Z,10.08
2019-05-06T07:33:19.457Z,10.05
2019-05-06T07:34:19.488Z,9.96
2019-05-06T07:35:19.517Z,10.10
2019-05-06T07:36:20.227Z,9.96
2019-05-06T07:37:21.955Z,9.92
2019-05-06T07:38:19.586Z,10.03
2019-05-06T07:39:19.618Z,10.11
2019-05-06T07:40:21.912Z,10.33
2019-05-06T07:41:19.671Z,10.47
2019-05-06T07:42:19.698Z,10.65
2019-05-06T07:43:21.904Z,10.42
2019-05-06T07:44:22.249Z,10.31
2019-05-06T07:45:21.890Z,10.28
2019-05-06T07:46:19.800Z,10.14
2019-05-06T07:47:19.826Z,10.20
2019-05-06T07:48:19.851Z,10.36
2019-05-06T07:49:19.885Z,10.05
2019-05-06T07:50:22.268Z,10.17
2019-05-06T07:51:19.938Z,10.17
2019-05-06T07:52:19.964Z,10.20
2019-05-06T07:53:19.985Z,10.38
2019-05-06T07:54:22.047Z,11.20
2019-05-06T07:55:20.037Z,11.68
2019-05-06T07:56:22.284Z,12.01
2019-05-06T07:57:22.014Z,12.29
2019-05-06T07:58:20.118Z,12.38
2019-05-06T07:59:22.300Z,12.66
2019-05-06T08:00:20.174Z,11.97
2019-05-06T08:01:23.614Z,11.85
2019-05-06T08:02:22.624Z,11.94
2019-05-06T08:03:22.239Z,11.91
2019-05-06T08:04:20.282Z,12.04
2019-05-06T08:05:22.339Z,12.47
2019-05-06T08:06:22.559Z,12.73
2019-05-06T08:07:22.326Z,13.16
2019-05-06T08:08:22.853Z,12.76
2019-05-06T08:09:22.111Z,12.44
2019-05-06T08:10:22.024Z,12.33
2019-05-06T08:11:22.610Z,12.53
2019-05-06T08:12:22.302Z,12.23
2019-05-06T08:13:22.561Z,11.84
2019-05-06T08:14:22.465Z,11.68
2019-05-06T08:15:22.547Z,11.98
2019-05-06T08:16:22.551Z,11.75
2019-05-06T08:17:22.251Z,12.05
2019-05-06T08:18:21.909Z,12.16
2019-05-06T08:19:22.761Z,12.22
2019-05-06T08:20:22.217Z,12.08
2019-05-06T08:21:22.357Z,12.48
2019-05-06T08:22:22.695Z,12.86
2019-05-06T08:23:22.073Z,12.81
2019-05-06T08:24:22.766Z,13.11
2019-05-06T08:25:22.927Z,13.09
2019-05-06T08:26:22.432Z,12.96
2019-05-06T08:27:22.734Z,13.10
2019-05-06T08:28:22.561Z,13.03
2019-05-06T08:29:22.497Z,12.91
2019-05-06T08:30:22.965Z,12.95
2019-05-06T08:31:22.344Z,12.92
2019-05-06T08:32:22.774Z,13.10
2019-05-06T08:33:21.991Z,12.89
2019-05-06T08:34:22.618Z,12.86
2019-05-06T08:35:22.767Z,12.71
2019-05-06T08:36:22.543Z,12.53
2019-05-06T08:37:22.768Z,12.51
2019-05-06T08:38:22.595Z,12.65
2019-05-06T08:39:22.033Z,12.62
2019-05-06T08:40:22.687Z,12.20
2019-05-06T08:41:22.743Z,12.15
2019-05-06T08:42:22.442Z,11.89
2019-05-06T08:43:21.970Z,11.68
2019-05-06T08:44:22.521Z,11.63
2019-05-06T08:45:22.041Z,12.56
2019-05-06T08:46:23.459Z,13.81
2019-05-06T08:47:22.358Z,14.27
2019-05-06T08:48:22.046Z,14.51
2019-05-06T08:49:22.524Z,14.95
2019-05-06T08:50:21.859Z,15.34
2019-05-06T08:51:22.393Z,15.38
2019-05-06T08:52:21.774Z,15.86
2019-05-06T08:53:24.175Z,15.41
2019-05-06T08:54:22.761Z,15.25
2019-05-06T08:55:22.088Z,14.87
2019-05-06T08:56:22.087Z,14.38
2019-05-06T08:57:22.793Z,14.33
2019-05-06T08:58:22.178Z,14.67
2019-05-06T08:59:23.849Z,15.04
2019-05-06T09:00:22.760Z,15.44
2019-05-06T09:01:22.430Z,16.02
2019-05-06T09:02:22.877Z,15.81
2019-05-06T09:03:22.394Z,16.06
2019-05-06T09:04:22.795Z,16.02
2019-05-06T09:05:22.321Z,16.13
2019-05-06T09:06:29.217Z,16.81
2019-05-06T09:07:23.905Z,15.99
2019-05-06T09:08:22.724Z,15.34
2019-05-06T09:09:22.543Z,15.78
2019-05-06T09:10:22.732Z,16.44
2019-05-06T09:13:53.103Z,17.06
2019-05-06T09:14:53.382Z,17.28
2019-05-06T09:15:53.166Z,17.39
2019-05-06T09:16:54.087Z,16.99
2019-05-06T09:17:53.238Z,17.05
2019-05-06T09:18:53.508Z,16.44
2019-05-06T09:19:53.557Z,16.32
2019-05-06T09:20:53.707Z,16.52
2019-05-06T09:21:55.984Z,16.65
2019-05-06T09:23:45.970Z,14.53
2019-05-06T09:24:46.004Z,14.75
2019-05-06T09:25:46.035Z,14.19
2019-05-06T09:26:46.073Z,14.23
2019-05-06T09:27:46.100Z,14.05
2019-05-06T09:28:46.139Z,13.78
2019-05-06T09:29:46.165Z,13.70
2019-05-06T09:30:46.200Z,14.44
2019-05-06T09:31:46.229Z,15.55
2019-05-06T09:32:46.259Z,15.96
2019-05-06T09:33:46.294Z,16.49
2019-05-06T09:34:46.320Z,16.63
2019-05-06T09:35:46.359Z,17.07
2019-05-06T09:36:51.849Z,17.24
2019-05-06T09:37:46.416Z,17.17
2019-05-06T09:38:46.444Z,17.36
2019-05-06T09:39:46.484Z,17.40
2019-05-06T09:40:46.510Z,17.52
2019-05-06T09:41:48.808Z,17.90
2019-05-06T09:42:46.574Z,18.34
2019-05-06T09:43:46.603Z,17.98
2019-05-06T09:44:50.232Z,16.92
2019-05-06T09:45:46.674Z,16.67
2019-05-06T09:46:46.700Z,17.21
2019-05-06T09:47:46.731Z,17.28
2019-05-06T09:48:46.771Z,17.36
2019-05-06T09:49:46.801Z,17.42
2019-05-06T09:50:46.906Z,17.79
2019-05-06T09:51:46.864Z,17.80
2019-05-06T09:52:49.519Z,17.99
2019-05-06T09:53:46.928Z,17.24
2019-05-06T09:54:46.959Z,17.13
2019-05-06T09:55:46.990Z,16.94
2019-05-06T09:56:47.030Z,17.06
2019-05-06T09:57:47.063Z,17.02
2019-05-06T09:58:47.089Z,17.50
2019-05-06T09:59:47.123Z,17.76
2019-05-06T10:00:47.155Z,18.01
2019-05-06T10:01:47.190Z,17.96
2019-05-06T10:02:49.508Z,18.02
2019-05-06T10:03:47.256Z,17.60
2019-05-06T10:04:47.299Z,17.32
2019-05-06T10:05:47.378Z,17.83
2019-05-06T10:06:56.175Z,18.42
2019-05-06T10:07:47.395Z,18.68
2019-05-06T10:09:35.000Z,19.00
2019-05-06T10:11:32.956Z,19.28
2019-05-06T10:12:32.988Z,17.83
2019-05-06T10:13:32.906Z,17.42
2019-05-06T10:18:41.947Z,17.28
2019-05-06T10:19:42.926Z,18.06
2019-05-06T10:20:42.840Z,17.87
2019-05-06T10:21:42.730Z,17.60
2019-05-06T10:22:43.083Z,16.32
2019-05-06T10:23:42.426Z,15.86
2019-05-06T10:24:43.078Z,15.77
2019-05-06T10:25:43.619Z,14.98
2019-05-06T10:26:43.168Z,14.64
2019-05-06T10:27:42.363Z,14.77
2019-05-06T10:28:42.283Z,14.80
2019-05-06T10:29:43.229Z,14.94
2019-05-06T10:30:42.357Z,15.04
2019-05-06T10:31:43.164Z,15.07
2019-05-06T10:32:42.735Z,15.20
2019-05-06T10:33:42.742Z,15.34
2019-05-06T10:34:43.451Z,15.49
2019-05-06T10:35:42.932Z,15.56
2019-05-06T10:36:42.751Z,15.30
2019-05-06T10:37:42.565Z,15.12
2019-05-06T10:38:42.593Z,15.40
2019-05-06T10:39:42.624Z,15.58
2019-05-06T10:40:57.229Z,15.26
2019-05-06T10:41:42.684Z,15.30
2019-05-06T10:42:43.097Z,15.33
2019-05-06T10:43:43.157Z,15.33
2019-05-06T10:44:43.043Z,15.91
2019-05-06T10:45:42.806Z,16.72
2019-05-06T10:46:43.155Z,17.12
2019-05-06T10:47:42.870Z,16.65
2019-05-06T10:48:42.904Z,15.84
2019-05-06T10:49:42.929Z,15.37
2019-05-06T10:50:42.959Z,15.15
2019-05-06T10:51:42.998Z,15.10
2019-05-06T10:52:43.026Z,15.23
2019-05-06T10:53:43.050Z,15.02
2019-05-06T10:54:43.084Z,15.35
2019-05-06T10:55:43.109Z,14.86
2019-05-06T10:56:52.745Z,14.70
2019-05-06T10:57:43.231Z,14.48
2019-05-06T10:58:44.024Z,15.02
2019-05-06T10:59:43.230Z,15.23
2019-05-06T11:00:43.264Z,14.82
2019-05-06T11:01:43.301Z,14.79
2019-05-06T11:02:43.352Z,14.75
2019-05-06T11:03:43.367Z,15.30
2019-05-06T11:04:43.380Z,15.16
2019-05-06T11:05:43.501Z,14.85
2019-05-06T11:06:43.437Z,14.90
2019-05-06T11:07:43.484Z,14.67
2019-05-06T11:08:43.503Z,14.44
2019-05-06T11:09:43.526Z,14.80
2019-05-06T11:10:45.498Z,15.23
2019-05-06T11:11:43.589Z,15.01
2019-05-06T11:12:43.612Z,14.60
2019-05-06T11:13:43.644Z,14.42
2019-05-06T11:14:43.675Z,14.24
2019-05-06T11:15:43.710Z,14.15
2019-05-06T11:16:43.732Z,14.26
2019-05-06T11:17:43.823Z,14.13
2019-05-06T11:18:43.794Z,14.15
2019-05-06T11:19:43.814Z,14.06
2019-05-06T11:20:44.235Z,14.13
2019-05-06T11:21:45.007Z,14.21
2019-05-06T11:22:43.951Z,14.26
2019-05-06T11:23:43.932Z,14.20
2019-05-06T11:24:43.962Z,14.12
2019-05-06T11:25:43.999Z,14.15
2019-05-06T11:26:44.017Z,14.11
2019-05-06T11:27:45.085Z,13.81
2019-05-06T11:28:44.075Z,13.69
2019-05-06T11:29:44.105Z,13.73
2019-05-06T11:30:44.130Z,13.68
2019-05-06T11:31:44.157Z,13.57
2019-05-06T11:32:44.632Z,13.70
2019-05-06T11:33:44.223Z,13.78
2019-05-06T11:34:44.241Z,14.08
2019-05-06T11:35:44.271Z,14.24
2019-05-06T11:36:44.304Z,15.49
2019-05-06T11:37:50.179Z,15.98
2019-05-06T11:38:44.355Z,15.68
2019-05-06T11:39:44.387Z,15.73
2019-05-06T11:40:44.412Z,16.00
2019-05-06T11:42:01.726Z,15.68
2019-05-06T11:42:44.476Z,15.30
2019-05-06T11:43:44.494Z,14.87
2019-05-06T11:44:44.525Z,14.46
2019-05-06T11:45:44.550Z,14.03
2019-05-06T11:46:44.588Z,13.97
2019-05-06T11:47:44.610Z,13.75
2019-05-06T11:48:44.638Z,14.01
2019-05-06T11:49:44.663Z,14.05
2019-05-06T11:50:44.697Z,14.20
2019-05-06T11:51:44.720Z,14.75
2019-05-06T11:52:44.749Z,14.44
2019-05-06T11:53:44.778Z,14.06
2019-05-06T11:54:44.804Z,14.05
2019-05-06T11:55:44.832Z,14.03
2019-05-06T11:56:51.234Z,14.01
2019-05-06T11:57:44.924Z,13.51
2019-05-06T11:58:44.917Z,13.50
2019-05-06T11:59:44.948Z,13.54
2019-05-06T12:00:44.977Z,13.55
2019-05-06T12:01:45.005Z,13.81
2019-05-06T12:02:48.404Z,13.75
2019-05-06T12:03:45.072Z,13.76
2019-05-06T12:04:45.091Z,13.88
2019-05-06T12:05:45.118Z,13.76
2019-05-06T12:06:45.143Z,13.54
2019-05-06T12:08:00.981Z,13.40
2019-05-06T12:08:45.199Z,13.35
2019-05-06T12:09:45.233Z,13.25
2019-05-06T12:10:45.253Z,13.24
2019-05-06T12:11:45.281Z,13.27
2019-05-06T12:12:45.308Z,12.84
2019-05-06T12:13:45.339Z,13.01
2019-05-06T12:14:45.364Z,13.70
2019-05-06T12:15:45.394Z,14.59
2019-05-06T12:16:45.426Z,15.33
2019-05-06T12:17:45.445Z,15.96
2019-05-06T12:18:45.478Z,16.37
2019-05-06T12:19:45.504Z,16.44
2019-05-06T12:20:45.529Z,17.02
2019-05-06T12:21:45.558Z,16.37
2019-05-06T12:22:45.584Z,16.11
2019-05-06T12:23:45.615Z,15.95
2019-05-06T12:24:45.642Z,15.88
2019-05-06T12:25:46.264Z,15.88
2019-05-06T12:26:45.701Z,15.99
2019-05-06T12:27:45.732Z,15.95
2019-05-06T12:28:45.786Z,15.51
2019-05-06T12:29:45.785Z,15.04
2019-05-06T12:30:45.811Z,14.48
2019-05-06T12:31:45.843Z,14.05
2019-05-06T12:32:45.872Z,14.12
2019-05-06T12:33:45.898Z,14.19
2019-05-06T12:34:45.930Z,14.20
2019-05-06T12:35:45.962Z,14.59
2019-05-06T12:36:45.984Z,14.30
2019-05-06T12:37:46.011Z,14.27
2019-05-06T12:38:46.047Z,14.16
2019-05-06T12:39:46.068Z,14.09
2019-05-06T12:40:46.104Z,14.13
2019-05-06T12:41:46.126Z,14.44
2019-05-06T12:42:46.150Z,14.28
2019-05-06T12:43:46.182Z,14.03
2019-05-06T12:44:46.216Z,13.86
2019-05-06T12:45:46.237Z,14.16
2019-05-06T12:46:46.266Z,15.27
2019-05-06T12:47:46.295Z,15.96
2019-05-06T12:48:46.325Z,16.67
2019-05-06T12:49:46.351Z,17.36
2019-05-06T12:50:46.378Z,17.09
2019-05-06T12:51:46.405Z,16.77
2019-05-06T12:52:46.437Z,16.52
2019-05-06T12:53:46.463Z,16.95
2019-05-06T12:54:46.490Z,17.22
2019-05-06T12:55:46.528Z,16.90
2019-05-06T12:56:46.550Z,15.58
2019-05-06T12:57:46.577Z,15.10
2019-05-06T12:58:46.605Z,14.98
2019-05-06T12:59:46.638Z,14.71
2019-05-06T13:00:46.666Z,14.74
2019-05-06T13:01:46.701Z,15.18
2019-05-06T13:02:46.726Z,15.30
2019-05-06T13:03:46.750Z,15.41
2019-05-06T13:04:56.008Z,15.18
2019-05-06T13:05:46.808Z,14.97
2019-05-06T13:06:46.835Z,15.05
2019-05-06T13:07:46.864Z,15.13
2019-05-06T13:08:58.611Z,15.20
2019-05-06T13:09:46.927Z,15.58
2019-05-06T13:10:46.947Z,15.56
2019-05-06T13:11:46.978Z,15.01
2019-05-06T13:12:47.006Z,14.90
2019-05-06T13:13:59.790Z,14.80
2019-05-06T13:14:47.063Z,14.71
2019-05-06T13:15:47.092Z,14.67
2019-05-06T13:16:47.120Z,14.74